CheckWX is a tool to help pilots better visualize weather data.  It is not intended as a substitute for an official pre-flight weather briefing.

21:04:14 UTC

KRFD TAF
Chicago / Rockford International Airport
Chicago/Rockford, Illinois, USA
KRFD 162004Z 1620/1718 03007KT P6SM BKN008 OVC012 TEMPO 1620/1624 SCT008 FM171000 02006KT 6SM BR OVC007 TEMPO 1710/1714 4SM BR OVC005 FM171600 05007KT P6SM SCT007 OVC015

Jun-16@
20:00 UTC

Jun-16 @ 20:00 UTC

Jun-17@
10:00 UTC

Jun-17 @ 10:00 UTC

KRFD 162004Z 1620/1718 03007KT P6SM BKN008 OVC012
Wind
  • 030° at 7 KTS
Cloud Levels
  • Broken at 800' AGL
  • Overcast at 1,200' AGL

Jun-16@
20:00 UTC

Jun-16 @ 20:00 UTC

Jun-17@
00:00 UTC

Jun-17 @ 00:00 UTC

TEMPO 1620/1624 SCT008

Temporary

Temporary Changes expected for less than half the time period

Cloud Levels
  • Scattered at 800' AGL

Jun-17@
10:00 UTC

Jun-17 @ 10:00 UTC

Jun-17@
14:00 UTC

Jun-17 @ 14:00 UTC

TEMPO 1710/1714 4SM BR OVC005

Temporary

Temporary Changes expected for less than half the time period

Conditions
Mist
Cloud Levels
  • Overcast at 500' AGL

Jun-17@
10:00 UTC

Jun-17 @ 10:00 UTC

Jun-17@
16:00 UTC

Jun-17 @ 16:00 UTC

FM171000 02006KT 6SM BR OVC007

From

From Standard forecast or significant change

Wind
  • 020° at 6 KTS
Conditions
Mist
Cloud Levels
  • Overcast at 700' AGL

Jun-17@
16:00 UTC

Jun-17 @ 16:00 UTC

Jun-17@
18:00 UTC

Jun-17 @ 18:00 UTC

FM171600 05007KT P6SM SCT007 OVC015

From

From Standard forecast or significant change

Wind
  • 050° at 7 KTS
Cloud Levels
  • Scattered at 700' AGL
  • Overcast at 1,500' AGL